Time;durP1;ratioP1;P1;durP2;ratioP2;P2;SDS_P1;SDS_P2;PMS_P1;PMS_P2;Temp;Humidity;BMP_temperature;BMP_pressure;BME280_temperature;BME280_humidity;BME280_pressure;Samples;Min_cycle;Max_cycle;Signal;HPM_P1;HPM_P2
2022/01/25 00:15:03;;;;;;;54.92;19.30;;;5.30;99.90;;;;;;4987121;28;20029;-69
2022/01/25 00:26:48;;;;;;;59.92;20.25;;;5.20;99.90;;;;;;4967274;28;20039;-70
2022/01/25 00:29:27;;;;;;;55.42;18.17;;;5.20;99.90;;;;;;4967659;28;20046;-70
2022/01/25 00:31:55;;;;;;;52.95;17.73;;;5.20;99.90;;;;;;4967809;28;20027;-71
2022/01/25 00:34:21;;;;;;;55.13;17.50;;;5.20;99.90;;;;;;4967391;28;20472;-70
2022/01/25 00:36:46;;;;;;;57.25;19.20;;;5.20;99.90;;;;;;4967599;28;20042;-70
2022/01/25 00:39:12;;;;;;;55.33;17.75;;;5.20;99.90;;;;;;4967073;28;20050;-70
2022/01/25 00:41:41;;;;;;;69.97;20.95;;;5.20;99.90;;;;;;4967327;28;20059;-71
2022/01/25 00:44:11;;;;;;;57.83;18.90;;;5.20;99.90;;;;;;4967443;28;20033;-69
2022/01/25 00:46:36;;;;;;;64.65;20.65;;;5.20;99.90;;;;;;4965725;29;20387;-70
2022/01/25 00:49:03;;;;;;;67.43;19.77;;;5.10;99.90;;;;;;4967370;28;20047;-70
2022/01/25 00:54:01;;;;;;;64.10;18.80;;;5.10;99.90;;;;;;4966965;28;20058;-70
2022/01/25 00:56:34;;;;;;;72.82;22.35;;;5.10;99.90;;;;;;4967000;28;20016;-71
2022/01/25 00:59:03;;;;;;;58.30;18.73;;;5.10;99.90;;;;;;4967058;28;20130;-69
2022/01/25 01:01:31;;;;;;;59.17;19.77;;;5.10;99.90;;;;;;4966870;28;20024;-69
2022/01/25 01:03:57;;;;;;;68.88;20.05;;;5.00;99.90;;;;;;4966913;28;20061;-69
2022/01/25 01:06:24;;;;;;;73.85;20.95;;;5.00;99.90;;;;;;4967299;28;20427;-69
2022/01/25 01:08:50;;;;;;;76.18;21.38;;;5.00;99.90;;;;;;4966723;28;20038;-70
2022/01/25 01:11:25;;;;;;;53.85;17.63;;;5.00;99.90;;;;;;4966896;28;20122;-69
2022/01/25 01:14:09;;;;;;;54.80;17.85;;;5.00;99.90;;;;;;4963854;28;20053;-70
2022/01/25 01:28:51;;;;;;;60.22;18.10;;;5.00;99.90;;;;;;4966851;28;20110;-70
2022/01/25 01:30:42;;;;;;;61.35;18.67;;;4.90;99.90;;;;;;4966610;28;20046;-70
2022/01/25 01:43:44;;;;;;;60.45;20.67;;;4.90;99.90;;;;;;4966287;28;20108;-69
2022/01/25 01:51:17;;;;;;;61.20;19.60;;;4.90;99.90;;;;;;4985365;28;20424;-70
2022/01/25 01:53:43;;;;;;;;;;;4.80;99.90;;;;;;4985479;28;20047;-70
2022/01/25 01:56:09;;;;;;;56.83;20.08;;;4.80;99.90;;;;;;4985557;28;19906;-70
2022/01/25 01:58:36;;;;;;;53.03;17.25;;;4.80;99.90;;;;;;4985455;28;20043;-70
2022/01/25 02:01:09;;;;;;;55.92;16.98;;;4.90;99.90;;;;;;4986008;28;20023;-69
2022/01/25 02:03:35;;;;;;;56.92;18.25;;;4.90;99.90;;;;;;4985240;28;20030;-69
2022/01/25 02:06:03;;;;;;;53.88;20.00;;;4.80;99.90;;;;;;4985545;28;20023;-70
2022/01/25 02:08:28;;;;;;;66.05;21.77;;;4.80;99.90;;;;;;4985567;28;20077;-70
2022/01/25 02:10:57;;;;;;;53.97;18.48;;;4.80;99.90;;;;;;4985415;28;20476;-71
2022/01/25 02:13:25;;;;;;;51.70;17.60;;;4.80;99.90;;;;;;4985679;28;20511;-70
2022/01/25 02:15:51;;;;;;;62.72;18.85;;;4.80;99.90;;;;;;4985820;28;20039;-69
2022/01/25 02:23:46;;;;;;;60.25;19.00;;;4.80;99.90;;;;;;4985739;28;20091;-71
2022/01/25 02:26:13;;;;;;;69.18;20.02;;;4.80;99.90;;;;;;4986137;28;20027;-69
2022/01/25 02:28:41;;;;;;;60.42;19.40;;;4.90;99.90;;;;;;4988463;28;20086;-71
2022/01/25 02:31:10;;;;;;;60.47;20.05;;;4.90;99.90;;;;;;4988978;28;20031;-70
2022/01/25 02:33:36;;;;;;;60.53;19.23;;;4.80;99.90;;;;;;4988238;28;20523;-70
2022/01/25 02:36:05;;;;;;;51.97;19.70;;;4.80;99.90;;;;;;4988608;28;20035;-70
2022/01/25 02:38:32;;;;;;;55.35;18.27;;;4.80;99.90;;;;;;4988606;28;20094;-70
2022/01/25 02:40:59;;;;;;;44.20;17.42;;;4.90;99.90;;;;;;4988870;28;20097;-71
2022/01/25 02:43:26;;;;;;;46.42;16.70;;;4.90;99.90;;;;;;4989427;28;20067;-71
2022/01/25 02:48:51;;;;;;;58.75;19.08;;;4.90;99.90;;;;;;4988951;28;20165;-70
2022/01/25 02:51:17;;;;;;;58.85;18.55;;;4.90;99.90;;;;;;4988572;28;20023;-69
2022/01/25 02:53:42;;;;;;;64.65;19.02;;;4.90;99.90;;;;;;4988239;28;20058;-70
2022/01/25 02:56:08;;;;;;;54.58;18.67;;;4.90;99.90;;;;;;4988965;28;20142;-69
2022/01/25 02:58:34;;;;;;;64.05;17.27;;;4.80;99.90;;;;;;4988304;28;20483;-70
2022/01/25 03:01:00;;;;;;;53.30;15.98;;;4.80;99.90;;;;;;4988330;28;20033;-70
2022/01/25 03:03:26;;;;;;;61.47;19.90;;;4.80;99.90;;;;;;4971189;28;20098;-70
2022/01/25 03:05:52;;;;;;;63.78;18.75;;;4.90;99.90;;;;;;4988805;28;20039;-69
2022/01/25 03:08:17;;;;;;;62.47;19.27;;;4.90;99.90;;;;;;4988000;28;20087;-71
2022/01/25 03:10:45;;;;;;;52.83;19.30;;;4.90;99.90;;;;;;4988615;28;20034;-69
2022/01/25 03:13:19;;;;;;;52.55;18.05;;;4.90;99.90;;;;;;4988098;28;20030;-71
2022/01/25 03:18:24;;;;;;;59.92;18.65;;;4.80;99.90;;;;;;4988356;28;20049;-69
2022/01/25 03:20:58;;;;;;;63.88;19.20;;;4.80;99.90;;;;;;4988173;28;20082;-70
2022/01/25 03:23:29;;;;;;;56.70;17.88;;;4.70;99.90;;;;;;4988394;28;20027;-70
2022/01/25 03:25:56;;;;;;;61.10;17.20;;;4.80;99.90;;;;;;4988530;28;20030;-71
2022/01/25 03:28:23;;;;;;;52.28;19.02;;;4.80;99.90;;;;;;4987838;28;20037;-70
2022/01/25 03:30:49;;;;;;;58.35;20.10;;;4.80;99.90;;;;;;4988088;28;20038;-70
2022/01/25 03:33:16;;;;;;;55.83;20.00;;;4.80;99.90;;;;;;4988236;28;20031;-70
2022/01/25 03:35:43;;;;;;;57.28;18.60;;;4.80;99.90;;;;;;4987512;28;20101;-70
2022/01/25 03:38:09;;;;;;;54.78;17.90;;;4.90;99.90;;;;;;4987661;28;20054;-69
2022/01/25 03:40:36;;;;;;;61.05;18.60;;;4.70;99.90;;;;;;4988033;28;20035;-71
2022/01/25 03:43:05;;;;;;;60.42;18.60;;;4.80;99.90;;;;;;4987511;28;20046;-72
2022/01/25 03:45:34;;;;;;;49.85;18.60;;;4.80;99.90;;;;;;4988034;28;20050;-70
2022/01/25 03:49:49;;;;;;;57.08;17.83;;;4.80;99.90;;;;;;4970668;28;20037;-70
2022/01/25 03:50:49;;;;;;;52.40;16.98;;;4.70;99.90;;;;;;4987142;28;20058;-70
2022/01/25 03:53:16;;;;;;;49.22;17.25;;;4.80;99.90;;;;;;4987470;28;20061;-70
2022/01/25 03:55:43;;;;;;;55.53;17.45;;;4.70;99.90;;;;;;4987669;28;20027;-70
2022/01/25 03:58:08;;;;;;;55.55;16.38;;;4.70;99.90;;;;;;4987144;28;20491;-70
2022/01/25 04:00:36;;;;;;;60.97;19.35;;;4.70;99.90;;;;;;4987648;28;20041;-72
2022/01/25 04:08:11;;;;;;;49.15;16.95;;;4.60;99.90;;;;;;4987651;28;20037;-70
2022/01/25 04:10:37;;;;;;;47.65;19.70;;;4.60;99.90;;;;;;4987272;28;20037;-70
2022/01/25 04:13:04;;;;;;;49.90;17.00;;;4.70;99.90;;;;;;4969920;28;20026;-71
2022/01/25 04:15:30;;;;;;;61.95;19.95;;;4.70;99.90;;;;;;4987364;28;20051;-70
2022/01/25 04:18:15;;;;;;;60.88;18.15;;;4.70;99.90;;;;;;4987107;28;20039;-70
2022/01/25 04:20:43;;;;;;;60.83;18.80;;;4.70;99.90;;;;;;4987263;28;20023;-71
2022/01/25 04:25:53;;;;;;;50.67;18.02;;;4.70;99.90;;;;;;4986936;28;20054;-70
2022/01/25 04:28:19;;;;;;;59.50;19.02;;;4.80;99.90;;;;;;4986961;28;20031;-70
2022/01/25 04:30:44;;;;;;;54.15;19.48;;;4.60;99.90;;;;;;4986852;28;20046;-70
2022/01/25 04:33:24;;;;;;;55.88;15.63;;;4.70;99.90;;;;;;4985831;28;20027;-69
2022/01/25 04:36:23;;;;;;;47.78;16.73;;;4.70;99.90;;;;;;4987151;28;20054;-69
2022/01/25 04:49:46;;;;;;;55.28;18.25;;;4.80;99.90;;;;;;4986331;28;20490;-70
2022/01/25 04:52:17;;;;;;;51.47;16.50;;;4.70;99.90;;;;;;4968635;28;20051;-70
2022/01/25 05:00:04;;;;;;;48.45;17.30;;;4.60;99.90;;;;;;4985187;28;20073;-73
2022/01/25 05:02:44;;;;;;;60.50;18.13;;;4.80;99.90;;;;;;4969239;28;20031;-71
2022/01/25 05:05:19;;;;;;;58.35;19.77;;;4.60;99.90;;;;;;4986292;28;20475;-71
2022/01/25 05:10:14;;;;;;;53.97;17.52;;;4.60;99.90;;;;;;4986353;28;20042;-70
2022/01/25 05:12:52;;;;;;;53.47;18.90;;;4.60;99.90;;;;;;4985930;28;20057;-71
2022/01/25 05:15:59;;;;;;;49.90;17.75;;;4.60;99.90;;;;;;4986158;28;20023;-71
2022/01/25 05:18:23;;;;;;;52.38;17.15;;;4.60;99.90;;;;;;4985858;28;20106;-70
2022/01/25 05:23:34;;;;;;;;;;;4.70;99.90;;;;;;4986587;28;20110;-70
2022/01/25 05:25:59;;;;;;;57.65;17.13;;;4.60;99.90;;;;;;4986471;28;19909;-71
2022/01/25 05:28:28;;;;;;;51.75;16.90;;;4.70;99.90;;;;;;4985646;28;20063;-71
2022/01/25 05:30:53;;;;;;;57.10;16.90;;;4.70;99.90;;;;;;4986435;28;20029;-71
2022/01/25 05:33:19;;;;;;;55.17;17.33;;;4.70;99.90;;;;;;4968640;28;20031;-71
2022/01/25 05:35:44;;;;;;;63.15;16.17;;;4.70;99.90;;;;;;4985767;28;20054;-69
2022/01/25 05:38:10;;;;;;;49.85;18.25;;;4.60;99.90;;;;;;4985997;28;20050;-71
2022/01/25 05:40:45;;;;;;;46.97;16.73;;;4.70;99.90;;;;;;4985651;28;20027;-71
2022/01/25 05:46:11;;;;;;;58.17;18.55;;;4.70;99.90;;;;;;4985909;28;20034;-71
2022/01/25 05:48:29;;;;;;;52.90;16.95;;;4.70;99.90;;;;;;4984540;28;20071;-71
2022/01/25 05:50:56;;;;;;;46.20;15.70;;;4.70;99.90;;;;;;4986258;28;20030;-70
2022/01/25 05:53:22;;;;;;;46.08;15.82;;;4.70;99.90;;;;;;4985656;28;20105;-69
2022/01/25 05:55:48;;;;;;;47.60;17.40;;;4.70;99.90;;;;;;4985443;28;20087;-70
2022/01/25 05:58:13;;;;;;;47.45;16.55;;;4.70;99.90;;;;;;4985553;28;20043;-69
2022/01/25 06:00:40;;;;;;;49.08;16.20;;;4.70;99.90;;;;;;4968011;28;20033;-69
2022/01/25 06:03:06;;;;;;;56.83;17.90;;;4.70;99.90;;;;;;4989658;28;20031;-68
2022/01/25 06:05:35;;;;;;;51.05;17.30;;;4.80;99.90;;;;;;4989807;28;20058;-69
2022/01/25 06:08:03;;;;;;;55.95;17.40;;;4.80;99.90;;;;;;4989404;28;20034;-69
2022/01/25 06:10:29;;;;;;;58.33;16.85;;;4.70;99.90;;;;;;4989833;28;20027;-69
2022/01/25 06:12:56;;;;;;;43.20;16.60;;;4.70;99.90;;;;;;4989765;28;20099;-70
2022/01/25 06:15:22;;;;;;;50.78;15.45;;;4.70;99.90;;;;;;4988934;28;20038;-70
2022/01/25 06:17:49;;;;;;;51.38;15.23;;;4.70;99.90;;;;;;4989462;28;20046;-70
2022/01/25 06:20:15;;;;;;;42.58;14.68;;;4.70;99.90;;;;;;4988122;28;20033;-68
2022/01/25 06:22:41;;;;;;;41.17;15.25;;;4.80;99.90;;;;;;4988722;28;20098;-69
2022/01/25 06:25:07;;;;;;;52.22;16.65;;;4.80;99.90;;;;;;4989317;28;20038;-69
2022/01/25 06:27:33;;;;;;;49.97;17.05;;;4.70;99.90;;;;;;4989034;28;20031;-68
2022/01/25 06:30:00;;;;;;;47.03;16.45;;;4.70;99.90;;;;;;4971344;28;20509;-70
2022/01/25 06:32:25;;;;;;;50.40;17.67;;;4.70;99.90;;;;;;4989279;28;20038;-69
2022/01/25 06:34:51;;;;;;;50.88;15.65;;;4.70;99.90;;;;;;4989134;28;20027;-70
2022/01/25 06:37:17;;;;;;;52.80;17.67;;;4.70;99.90;;;;;;4988582;28;20094;-70
2022/01/25 06:39:42;;;;;;;48.20;16.20;;;4.70;99.90;;;;;;4988974;28;20095;-72
2022/01/25 06:42:11;;;;;;;44.83;15.40;;;4.70;99.90;;;;;;4971070;28;20034;-73
2022/01/25 06:44:38;;;;;;;54.85;16.23;;;4.70;99.90;;;;;;4971233;28;20023;-73
2022/01/25 06:47:04;;;;;;;53.25;15.93;;;4.80;99.90;;;;;;4988226;28;20094;-73
2022/01/25 06:49:30;;;;;;;54.67;16.45;;;4.80;99.90;;;;;;4979855;28;20027;-70
2022/01/25 06:51:57;;;;;;;44.20;15.23;;;4.80;99.90;;;;;;4981286;28;20035;-72
2022/01/25 06:54:23;;;;;;;51.53;16.00;;;4.80;99.90;;;;;;4980982;28;20058;-70
2022/01/25 06:56:49;;;;;;;42.58;15.50;;;4.70;99.90;;;;;;4972705;28;20046;-70
2022/01/25 06:59:15;;;;;;;52.17;14.20;;;4.80;99.90;;;;;;4980128;28;20094;-72
2022/01/25 07:01:41;;;;;;;36.42;15.35;;;4.90;99.90;;;;;;4987907;28;20030;-71
2022/01/25 07:04:06;;;;;;;49.00;15.73;;;4.80;99.90;;;;;;4970658;28;20038;-70
2022/01/25 07:06:32;;;;;;;56.42;16.30;;;4.80;99.90;;;;;;4988150;28;20038;-72
2022/01/25 07:09:00;;;;;;;44.30;15.80;;;4.80;99.90;;;;;;4988394;28;20026;-71
2022/01/25 07:11:25;;;;;;;46.88;15.45;;;4.70;99.90;;;;;;4988157;28;20080;-73
2022/01/25 07:13:58;;;;;;;54.40;15.95;;;4.90;99.90;;;;;;4987915;28;20026;-71
2022/01/25 07:16:25;;;;;;;56.60;15.20;;;4.70;99.90;;;;;;4970560;28;20031;-70
2022/01/25 07:18:51;;;;;;;65.28;16.60;;;4.80;99.90;;;;;;4988704;28;20043;-72
2022/01/25 07:21:17;;;;;;;40.47;14.68;;;4.70;99.90;;;;;;4968357;28;20581;-71
2022/01/25 07:23:42;;;;;;;52.72;15.77;;;4.70;99.90;;;;;;4987896;28;20022;-73
2022/01/25 07:26:08;;;;;;;46.20;15.48;;;4.70;99.90;;;;;;4986361;28;20046;-71
2022/01/25 07:28:36;;;;;;;50.30;15.65;;;4.70;99.90;;;;;;4970790;28;20039;-73
2022/01/25 07:31:05;;;;;;;47.75;15.27;;;4.70;99.90;;;;;;4988223;28;20023;-73
2022/01/25 07:33:31;;;;;;;50.67;17.17;;;4.80;99.90;;;;;;4987607;28;20031;-70
2022/01/25 07:35:56;;;;;;;48.30;15.45;;;4.70;99.90;;;;;;4970428;28;20054;-74
2022/01/25 07:38:22;;;;;;;39.85;13.73;;;4.70;99.90;;;;;;4987682;28;20043;-72
2022/01/25 07:40:48;;;;;;;42.70;14.07;;;4.70;99.90;;;;;;4987737;28;20086;-72
2022/01/25 07:43:14;;;;;;;46.90;15.60;;;4.70;99.90;;;;;;4987932;28;20078;-72
2022/01/25 07:45:41;;;;;;;47.33;14.95;;;4.70;99.90;;;;;;4987719;28;20031;-71
2022/01/25 07:48:09;;;;;;;52.72;14.25;;;4.70;99.90;;;;;;4987340;28;20030;-71
2022/01/25 07:50:36;;;;;;;44.80;14.32;;;4.70;99.90;;;;;;4987793;28;20023;-73
2022/01/25 07:53:04;;;;;;;54.95;14.77;;;4.80;99.90;;;;;;4984819;28;20167;-70
2022/01/25 07:55:29;;;;;;;47.35;16.17;;;4.70;99.90;;;;;;4969644;28;20027;-71
2022/01/25 07:57:56;;;;;;;42.70;15.30;;;4.70;99.90;;;;;;4969709;28;20046;-72
2022/01/25 08:00:21;;;;;;;47.80;14.05;;;4.70;99.90;;;;;;4987354;28;20034;-72
2022/01/25 08:02:48;;;;;;;45.50;13.82;;;4.70;99.90;;;;;;4987546;28;20027;-70
2022/01/25 08:05:15;;;;;;;46.10;13.88;;;4.70;99.90;;;;;;4969621;28;20035;-72
2022/01/25 08:07:41;;;;;;;47.95;17.90;;;4.70;99.90;;;;;;4969484;28;20027;-72
2022/01/25 08:10:07;;;;;;;52.47;15.77;;;4.70;99.90;;;;;;4986095;28;20027;-73
2022/01/25 08:12:33;;;;;;;45.90;14.93;;;4.70;99.90;;;;;;4969711;28;20034;-72
2022/01/25 08:15:00;;;;;;;47.47;15.07;;;4.70;99.90;;;;;;4987221;28;20074;-73
2022/01/25 08:17:26;;;;;;;41.80;15.18;;;4.80;99.90;;;;;;4969411;28;20094;-72
2022/01/25 08:19:51;;;;;;;47.22;16.85;;;4.70;99.90;;;;;;4992534;28;20167;-70
2022/01/25 08:22:18;;;;;;;50.55;15.98;;;4.70;99.90;;;;;;4994358;28;20031;-72
2022/01/25 08:24:45;;;;;;;46.75;14.20;;;4.70;99.90;;;;;;4986132;28;20023;-72
2022/01/25 08:27:11;;;;;;;49.85;16.02;;;4.70;99.90;;;;;;4984286;28;20082;-72
2022/01/25 08:29:37;;;;;;;32.47;13.23;;;4.70;99.90;;;;;;5000705;28;20042;-72
2022/01/25 08:32:03;;;;;;;41.72;15.13;;;4.70;99.90;;;;;;5006543;28;20030;-72
2022/01/25 08:34:30;;;;;;;46.33;15.23;;;4.70;99.90;;;;;;5002920;28;20026;-72
2022/01/25 08:36:56;;;;;;;36.88;13.70;;;4.70;99.90;;;;;;4986023;28;20086;-71
2022/01/25 08:39:25;;;;;;;55.78;17.10;;;4.80;99.90;;;;;;4985938;28;20069;-72
2022/01/25 08:41:56;;;;;;;44.63;14.93;;;4.80;99.90;;;;;;4967422;28;20031;-72
2022/01/25 08:44:22;;;;;;;50.15;15.10;;;4.90;99.90;;;;;;4976328;28;20062;-71
2022/01/25 08:46:47;;;;;;;44.78;15.65;;;4.90;99.90;;;;;;4970950;28;20039;-72
2022/01/25 08:49:13;;;;;;;38.67;14.70;;;4.90;99.90;;;;;;4975587;28;20027;-73
2022/01/25 08:51:39;;;;;;;45.15;15.55;;;4.90;99.90;;;;;;4968852;28;20038;-72
2022/01/25 08:54:06;;;;;;;43.90;14.07;;;4.90;99.90;;;;;;4967787;28;20105;-72
2022/01/25 08:56:33;;;;;;;42.00;15.13;;;4.90;99.90;;;;;;4981195;28;20023;-71
2022/01/25 08:58:59;;;;;;;47.95;14.52;;;5.00;99.90;;;;;;4980946;28;20043;-72
2022/01/25 09:01:26;;;;;;;35.78;13.25;;;4.90;99.90;;;;;;4980180;28;20138;-72
2022/01/25 09:03:54;;;;;;;57.58;16.10;;;4.90;99.90;;;;;;4986579;28;20037;-71
2022/01/25 09:06:20;;;;;;;51.45;15.32;;;4.80;99.90;;;;;;4969068;28;20030;-72
2022/01/25 09:08:46;;;;;;;49.53;14.82;;;4.90;99.90;;;;;;4985912;28;20058;-71
2022/01/25 09:11:11;;;;;;;47.25;14.65;;;4.90;99.90;;;;;;4968626;28;20026;-73
2022/01/25 09:13:39;;;;;;;48.03;13.77;;;4.90;99.90;;;;;;4986474;28;20467;-73
2022/01/25 09:16:06;;;;;;;41.03;13.82;;;4.90;99.90;;;;;;4985801;28;20026;-70
2022/01/25 09:18:32;;;;;;;45.90;14.25;;;4.90;99.90;;;;;;4985947;28;20035;-72
2022/01/25 09:20:58;;;;;;;38.67;13.85;;;4.90;99.90;;;;;;4968854;28;20030;-72
2022/01/25 09:23:26;;;;;;;37.72;14.23;;;4.90;99.90;;;;;;4983609;28;20023;-72
2022/01/25 09:25:52;;;;;;;42.22;13.13;;;4.90;99.90;;;;;;4985484;28;20025;-70
2022/01/25 09:28:18;;;;;;;41.80;14.00;;;4.90;99.90;;;;;;4985669;28;20023;-71
2022/01/25 09:30:45;;;;;;;41.20;15.02;;;4.90;99.90;;;;;;4985358;28;20134;-71
2022/01/25 09:33:12;;;;;;;37.50;13.55;;;4.90;99.90;;;;;;4985481;28;20027;-72
2022/01/25 09:35:37;;;;;;;41.40;15.50;;;5.00;99.90;;;;;;4967741;28;20023;-72
2022/01/25 09:38:03;;;;;;;44.35;14.00;;;4.90;99.90;;;;;;4985233;28;20033;-72
2022/01/25 09:40:31;;;;;;;41.13;15.35;;;5.00;99.90;;;;;;4985917;28;20114;-72
2022/01/25 09:42:58;;;;;;;36.90;11.88;;;4.90;99.90;;;;;;4985121;28;20435;-72
2022/01/25 09:45:25;;;;;;;40.80;13.18;;;4.90;99.90;;;;;;4982437;28;20027;-71
2022/01/25 09:47:51;;;;;;;39.97;13.45;;;4.90;99.90;;;;;;4985953;28;20027;-72
2022/01/25 09:50:18;;;;;;;36.95;12.68;;;5.00;99.90;;;;;;4979916;28;20031;-73
2022/01/25 09:52:46;;;;;;;44.10;12.27;;;5.00;99.90;;;;;;4976561;28;20443;-70
2022/01/25 09:55:18;;;;;;;42.33;12.93;;;5.00;99.90;;;;;;4983303;28;20031;-72
2022/01/25 09:57:44;;;;;;;56.88;14.23;;;5.00;99.90;;;;;;4985476;28;20022;-71
2022/01/25 10:00:14;;;;;;;52.05;14.93;;;5.00;99.90;;;;;;4967915;28;20062;-71
2022/01/25 10:03:10;;;;;;;40.72;13.85;;;5.00;99.90;;;;;;4968349;28;20026;-71
2022/01/25 10:05:36;;;;;;;34.95;12.65;;;5.00;99.90;;;;;;4984478;28;20059;-71
2022/01/25 10:08:07;;;;;;;50.33;12.15;;;5.10;99.90;;;;;;4985929;28;20023;-71
2022/01/25 10:10:41;;;;;;;30.65;11.65;;;5.10;99.90;;;;;;4985901;28;20082;-73
2022/01/25 10:13:22;;;;;;;38.25;12.45;;;5.20;99.90;;;;;;4985564;28;20054;-71
2022/01/25 10:16:01;;;;;;;49.28;12.80;;;5.20;99.90;;;;;;4982589;28;20038;-71
2022/01/25 10:18:42;;;;;;;39.90;12.60;;;5.30;99.90;;;;;;4983906;28;20066;-70
2022/01/25 10:21:12;;;;;;;37.33;12.43;;;5.40;99.90;;;;;;4986349;28;20035;-71
2022/01/25 10:23:40;;;;;;;38.30;13.20;;;5.30;99.90;;;;;;4979026;28;20058;-71
2022/01/25 10:26:06;;;;;;;37.88;13.10;;;5.30;99.90;;;;;;4976528;28;20030;-71
2022/01/25 10:28:32;;;;;;;44.47;13.27;;;5.30;99.90;;;;;;4981326;28;20039;-72
2022/01/25 10:31:04;;;;;;;36.63;14.05;;;5.30;99.90;;;;;;4985363;28;20027;-72
2022/01/25 10:33:39;;;;;;;45.95;12.05;;;5.30;99.90;;;;;;4982602;28;20150;-71
2022/01/25 10:36:19;;;;;;;41.63;12.77;;;5.30;99.90;;;;;;4973129;28;20042;-71
2022/01/25 10:38:48;;;;;;;37.63;13.13;;;5.40;99.90;;;;;;4982062;28;20031;-71
2022/01/25 10:41:16;;;;;;;35.22;12.15;;;5.40;99.90;;;;;;4978845;28;20423;-72
2022/01/25 10:43:44;;;;;;;39.90;11.73;;;5.40;99.90;;;;;;4977941;28;20035;-71
2022/01/25 10:46:15;;;;;;;43.22;13.73;;;5.40;99.90;;;;;;4983214;28;20041;-71
2022/01/25 10:48:45;;;;;;;39.03;12.63;;;5.40;99.90;;;;;;4988319;28;20029;-72
2022/01/25 10:51:15;;;;;;;36.20;12.13;;;5.40;99.90;;;;;;4988383;28;20023;-70
2022/01/25 10:53:41;;;;;;;30.30;11.70;;;5.30;99.90;;;;;;4987872;28;20054;-72
2022/01/25 10:56:08;;;;;;;38.20;12.50;;;5.40;99.90;;;;;;4987031;28;20025;-71
2022/01/25 10:58:42;;;;;;;46.80;12.50;;;5.40;99.90;;;;;;4987902;28;20033;-74
2022/01/25 11:01:10;;;;;;;35.70;12.75;;;5.50;99.90;;;;;;4988414;28;20026;-71
2022/01/25 11:03:40;;;;;;;29.30;11.25;;;5.60;99.90;;;;;;4988511;28;20030;-70
2022/01/25 11:06:18;;;;;;;34.78;12.70;;;5.40;99.90;;;;;;4970079;28;20027;-72
2022/01/25 11:08:46;;;;;;;36.47;11.40;;;5.40;99.90;;;;;;4972686;28;20027;-72
2022/01/25 11:11:23;;;;;;;40.28;12.02;;;5.50;99.90;;;;;;4987498;28;20054;-72
2022/01/25 11:13:50;;;;;;;35.47;11.13;;;5.60;99.90;;;;;;4987531;28;20027;-73
2022/01/25 11:16:15;;;;;;;24.20;10.73;;;5.50;99.90;;;;;;4970122;28;20710;-71
2022/01/25 11:18:41;;;;;;;37.60;11.48;;;5.70;99.90;;;;;;4969984;28;20031;-71
2022/01/25 11:21:10;;;;;;;37.58;12.75;;;5.50;99.90;;;;;;4986516;28;20110;-73
2022/01/25 11:23:37;;;;;;;31.25;12.20;;;5.50;99.90;;;;;;4986782;28;20027;-70
2022/01/25 11:26:06;;;;;;;32.22;12.13;;;5.60;99.90;;;;;;4985819;28;20034;-71
2022/01/25 11:28:33;;;;;;;37.75;12.50;;;5.60;99.90;;;;;;4986724;28;20030;-70
2022/01/25 11:31:07;;;;;;;48.50;12.07;;;5.60;99.90;;;;;;4987332;28;20034;-72
2022/01/25 11:33:35;;;;;;;28.40;10.90;;;5.70;99.90;;;;;;4986683;28;20081;-72
2022/01/25 11:36:07;;;;;;;45.00;12.65;;;5.80;99.90;;;;;;4986615;28;20069;-71
2022/01/25 11:38:49;;;;;;;37.58;12.57;;;5.70;99.90;;;;;;4968734;28;20039;-71
2022/01/25 11:41:17;;;;;;;39.22;10.85;;;5.70;99.90;;;;;;4985907;28;20062;-73
2022/01/25 11:44:03;;;;;;;37.15;10.88;;;5.80;99.90;;;;;;4986275;28;20031;-72
2022/01/25 11:46:31;;;;;;;41.13;11.70;;;5.80;99.90;;;;;;4986323;28;20022;-73
2022/01/25 11:49:05;;;;;;;35.05;11.35;;;5.80;99.90;;;;;;4986798;28;20039;-73
2022/01/25 11:51:33;;;;;;;35.10;12.20;;;5.80;99.90;;;;;;4986518;28;20110;-71
2022/01/25 11:54:04;;;;;;;31.70;10.65;;;5.80;99.90;;;;;;4986528;28;20354;-70
2022/01/25 11:56:30;;;;;;;37.83;12.75;;;5.90;99.90;;;;;;4968900;28;20102;-72
2022/01/25 11:58:59;;;;;;;40.67;12.30;;;5.90;99.90;;;;;;4985290;28;20047;-72
2022/01/25 12:01:28;;;;;;;32.15;10.68;;;5.90;99.90;;;;;;4968102;28;20029;-72
2022/01/25 12:04:04;;;;;;;42.28;12.32;;;5.90;99.90;;;;;;4985767;28;20035;-70
2022/01/25 12:06:49;;;;;;;37.40;11.32;;;5.90;99.90;;;;;;4985875;28;20050;-71
2022/01/25 12:10:13;;;;;;;38.38;11.68;;;6.00;99.90;;;;;;4968217;28;20050;-72
2022/01/25 12:12:09;;;;;;;33.03;11.10;;;5.90;99.90;;;;;;4975273;28;20039;-71
2022/01/25 12:14:51;;;;;;;44.47;12.82;;;6.00;99.90;;;;;;4968386;28;20316;-72
2022/01/25 12:17:27;;;;;;;47.75;12.35;;;6.10;99.90;;;;;;4985077;28;20118;-71
2022/01/25 12:19:59;;;;;;;31.38;12.75;;;6.10;99.90;;;;;;4984831;28;20043;-71
2022/01/25 12:22:36;;;;;;;44.15;13.15;;;6.20;99.90;;;;;;4968559;28;20094;-72
2022/01/25 12:25:28;;;;;;;36.20;11.95;;;6.20;99.90;;;;;;4985854;28;20089;-72
2022/01/25 12:28:07;;;;;;;41.40;11.63;;;6.20;99.90;;;;;;4984710;28;20415;-70
2022/01/25 12:30:39;;;;;;;38.70;12.43;;;6.20;99.90;;;;;;4985279;28;20035;-72
2022/01/25 12:33:08;;;;;;;39.17;14.45;;;6.30;99.90;;;;;;4968102;28;20055;-71
2022/01/25 12:35:54;;;;;;;35.17;11.40;;;6.30;99.90;;;;;;4966268;28;20034;-72
2022/01/25 12:38:38;;;;;;;33.85;12.45;;;6.30;99.90;;;;;;4984000;28;20031;-72
2022/01/25 12:41:15;;;;;;;36.22;13.02;;;6.40;99.90;;;;;;4984988;28;20065;-72
2022/01/25 12:43:53;;;;;;;29.42;11.23;;;6.40;99.90;;;;;;4984955;28;20058;-73
2022/01/25 12:46:24;;;;;;;38.58;12.02;;;6.40;99.90;;;;;;4984755;28;20026;-70
2022/01/25 12:48:52;;;;;;;32.55;11.73;;;6.50;99.90;;;;;;4966628;28;20571;-72
2022/01/25 12:51:21;;;;;;;29.60;11.38;;;6.60;99.90;;;;;;4982495;28;20031;-71
2022/01/25 12:53:49;;;;;;;32.05;9.10;;;6.50;99.90;;;;;;4967573;28;20062;-71
2022/01/25 12:56:19;;;;;;;39.03;11.23;;;6.60;99.90;;;;;;4985320;28;20108;-71
2022/01/25 12:58:47;;;;;;;33.80;11.60;;;6.60;99.90;;;;;;4984373;28;20046;-70
2022/01/25 13:01:16;;;;;;;27.58;10.52;;;6.60;99.90;;;;;;4983619;28;20091;-72
2022/01/25 13:03:43;;;;;;;32.05;10.60;;;6.80;99.90;;;;;;4983348;28;20431;-74
2022/01/25 13:06:21;;;;;;;27.83;11.43;;;6.60;99.90;;;;;;4984055;28;20027;-71
2022/01/25 13:09:01;;;;;;;30.98;11.32;;;6.70;99.90;;;;;;4966530;28;20030;-72
2022/01/25 13:16:54;;;;;;;36.38;10.05;;;6.70;99.90;;;;;;4983038;28;20023;-72
2022/01/25 13:19:33;;;;;;;42.45;9.20;;;6.60;99.90;;;;;;4984718;28;20057;-74
2022/01/25 13:22:12;;;;;;;29.20;9.35;;;6.50;99.90;;;;;;4983518;28;20034;-74
2022/01/25 13:24:49;;;;;;;31.23;10.65;;;6.40;99.90;;;;;;4967543;28;20038;-72
2022/01/25 13:27:17;;;;;;;27.95;9.85;;;6.30;99.90;;;;;;4983730;28;20030;-74
2022/01/25 13:32:36;;;;;;;32.58;9.95;;;6.30;99.90;;;;;;4984962;28;20033;-72
2022/01/25 13:35:27;;;;;;;29.33;8.88;;;6.20;99.90;;;;;;4982966;28;20399;-73
2022/01/25 13:38:09;;;;;;;29.25;9.38;;;6.20;99.90;;;;;;4965880;29;20134;-73
2022/01/25 13:45:56;;;;;;;23.08;8.07;;;6.20;99.90;;;;;;4984774;28;20035;-74
2022/01/25 13:48:27;;;;;;;21.92;8.13;;;6.10;99.90;;;;;;4966771;28;20042;-73
2022/01/25 13:50:55;;;;;;;21.27;8.35;;;6.20;99.90;;;;;;4969016;28;20679;-70
2022/01/25 13:53:21;;;;;;;26.10;7.40;;;6.20;99.90;;;;;;5003542;28;20153;-75
2022/01/25 13:55:52;;;;;;;28.88;8.02;;;6.20;99.90;;;;;;5003827;28;20030;-74
2022/01/25 13:58:31;;;;;;;24.55;7.97;;;6.10;99.90;;;;;;5004044;28;20089;-72
2022/01/25 14:01:00;;;;;;;29.35;8.90;;;6.00;99.90;;;;;;5003441;28;20119;-75
2022/01/25 14:03:34;;;;;;;27.40;9.52;;;6.00;99.90;;;;;;5003700;28;20048;-75
2022/01/25 14:06:18;;;;;;;25.05;9.13;;;6.00;99.90;;;;;;4996701;28;20034;-74
2022/01/25 14:08:44;;;;;;;29.85;9.40;;;6.00;99.90;;;;;;5003853;28;20042;-73
2022/01/25 14:11:34;;;;;;;24.13;9.35;;;5.90;99.90;;;;;;5003103;28;20027;-72
2022/01/25 14:25:01;;;;;;;26.33;9.38;;;5.90;99.90;;;;;;5027995;28;20041;-73
2022/01/25 14:27:32;;;;;;;27.98;9.23;;;6.00;99.90;;;;;;5016497;28;20030;-72
2022/01/25 14:29:59;;;;;;;35.38;9.35;;;6.00;99.90;;;;;;4990057;28;20038;-73
2022/01/25 14:32:29;;;;;;;23.70;8.40;;;6.00;99.90;;;;;;5005447;28;20041;-70
2022/01/25 14:35:13;;;;;;;26.30;8.82;;;6.00;99.90;;;;;;5011329;28;20030;-72
2022/01/25 14:37:49;;;;;;;27.85;9.32;;;6.00;99.90;;;;;;5020210;28;20033;-72
2022/01/25 14:40:17;;;;;;;41.63;8.20;;;5.90;99.90;;;;;;4990124;28;20085;-71
2022/01/25 14:42:46;;;;;;;28.00;8.07;;;5.90;99.90;;;;;;5006293;28;20426;-71
2022/01/25 14:45:23;;;;;;;28.50;8.35;;;5.90;99.90;;;;;;5009404;28;20119;-72
2022/01/25 14:47:51;;;;;;;38.50;11.00;;;5.90;99.90;;;;;;4990230;28;20033;-73
2022/01/25 14:50:34;;;;;;;23.92;6.88;;;5.90;99.90;;;;;;5007304;28;20521;-72